Terminal Aerodrome Forecast
Issued by NWS Grand Forks, ND

Home | Current Version | Previous Version | Graphics & Text | Print | Product List | Glossary On
Versions: 1 2 3 4 5 6 7 8 9 10 11 12 13 14 15 16 17 18 19 20 21 22 23 24 25
297
FTUS43 KFGF 161426 AAB
TAFGFK
TAF AMD
KGFK 161426Z 1614/1712 VRB06KT P6SM VCSH OVC020
      TEMPO 1614/1616 4SM -RA BR BKN007
     FM161600 VRB06KT P6SM VCSH OVC016
     FM162300 02007KT P6SM BKN020
     FM170300 VRB05KT P6SM SCT030=

USA.gov is the U.S. government's official web portal to all federal, state and local government web resources and services.